Data for 06/30/2007

Time Sea-Level Adjusted Pressure Absolute Pressure Temperature Relative Humidity Dew Point   
(mb) (inHg) (mb) (inHg) (C) (F) (%) (C) (F)
00:05 1016 30 845 24.95 22 71.5 24 0.5 32.9
00:10 1016 30 845 24.95 22.3 72.1 22 -0 32
00:15 1016 30 845 24.95 22.8 73 21 -0.2 31.6
00:20 1017 30.03 846 24.98 22.5 72.4 24 1 33.9
00:25 1017 30.03 846 24.98 21.5 70.6 27 1.8 35.3
00:30 1017 30.03 846 24.98 21.2 70.1 26 1.1 34
00:35 1017 30.03 846 24.98 21.5 70.7 25 0.9 33.6
00:40 1017 30.03 846 24.98 21.7 71.1 25 1.1 33.9
00:45 1017 30.03 846 24.98 21.7 71 26 1.4 34.6
00:50 1017 30.03 846 24.98 21.5 70.6 27 1.9 35.4
00:55 1017 30.03 846 24.98 21.3 70.3 31 3.4 38.2
01:00 1017 30.03 846 24.98 20.9 69.7 31 3.1 37.6
01:05 1017 30.03 846 24.98 20.7 69.2 32 3.4 38.2
01:10 1017 30.03 846 24.98 20.5 68.8 33 3.7 38.7
01:15 1017 30.03 846 24.98 19.7 67.5 36 4.3 39.7
01:20 1017 30.03 846 24.98 18.8 65.8 38 4.2 39.5
01:25 1017 30.03 846 24.98 18.5 65.4 41 5 41.1
01:30 1017 30.03 846 24.98 18.4 65 42 5.2 41.4
01:35 1017 30.03 846 24.98 18.6 65.4 41 5.1 41.2
01:40 1017 30.03 847 25.01 19.2 66.6 39 5.1 41.1
01:45 1017 30.03 847 25.01 19.6 67.3 39 5.5 41.9
01:50 1017 30.03 847 25.01 19.7 67.5 39 5.7 42.2
01:55 1017 30.03 847 25.01 19.7 67.4 40 6 42.7
02:00 1017 30.03 847 25.01 19.5 67.2 41 6.1 43
02:05 1018 30.06 847 25.01 19.3 66.8 42 6.3 43.4
02:10 1018 30.06 847 25.01 19.3 66.7 42 6.3 43.4
02:15 1018 30.06 847 25.01 19.2 66.5 43 6.4 43.6
02:20 1018 30.06 847 25.01 19.1 66.4 43 6.4 43.5
02:25 1018 30.06 847 25.01 19.3 66.8 43 6.5 43.6
02:30 1018 30.06 847 25.01 19.5 67 42 6.5 43.7
02:35 1018 30.06 847 25.01 19.1 66.3 45 7.1 44.8
02:40 1018 30.06 847 25.01 18.5 65.3 46 6.9 44.4
02:45 1018 30.06 847 25.01 18.4 65.2 46 6.9 44.4
02:50 1018 30.06 847 25.01 18.2 64.7 47 6.7 44
02:55 1018 30.06 847 25.01 18 64.4 47 6.7 44
03:00 1018 30.06 847 25.01 17.8 64 46 6.3 43.3
03:05 1018 30.06 847 25.01 18.2 64.8 44 5.9 42.6
03:10 1018 30.06 847 25.01 18 64.4 46 6.3 43.4
03:15 1018 30.06 847 25.01 17.5 63.5 47 6.1 42.9
03:20 1018 30.06 847 25.01 17.5 63.6 45 5.6 42
03:25 1018 30.06 847 25.01 17.4 63.4 46 5.9 42.7
03:30 1018 30.06 847 25.01 16.9 62.5 48 5.9 42.7
03:35 1018 30.06 847 25.01 16.7 62 48 5.6 42.1
03:40 1018 30.06 847 25.01 16.7 62.1 48 5.7 42.3
03:45 1018 30.06 847 25.01 16.6 61.8 49 5.8 42.5
03:50 1018 30.06 847 25.01 16.6 61.8 49 5.8 42.5
03:55 1018 30.06 847 25.01 16.6 61.8 47 5.4 41.7
04:00 1018 30.06 847 25.01 16.6 62 48 5.7 42.3
04:05 1018 30.06 847 25.01 16.5 61.7 50 6 42.9
04:10 1018 30.06 847 25.01 16.7 62 48 5.8 42.5
04:15 1018 30.06 847 25.01 16.9 62.5 49 6.2 43.2
04:20 1018 30.06 847 25.01 16.8 62.2 48 6 42.8
04:25 1018 30.06 847 25.01 16.5 61.7 51 6.5 43.8
04:30 1018 30.06 847 25.01 16 60.8 52 6.2 43.1
04:35 1018 30.06 847 25.01 15.6 60.1 57 7.3 45.1
04:40 1018 30.06 847 25.01 14.5 58 58 6.5 43.7
04:45 1018 30.06 847 25.01 14.6 58.3 60 7 44.6
04:50 1018 30.06 847 25.01 15 59.1 57 6.6 43.8
04:55 1018 30.06 847 25.01 14.8 58.7 55 6.1 42.9
05:00 1018 30.06 847 25.01 15.1 59.3 55 6.2 43.2
05:05 1018 30.06 847 25.01 15.3 59.5 54 6 42.9
05:10 1018 30.06 848 25.04 15.6 60.1 53 6.1 43
05:15 1018 30.06 848 25.04 15.5 60 53 6.2 43.2
05:20 1018 30.06 848 25.04 15.4 59.8 54 6.1 43.1
05:25 1018 30.06 848 25.04 15.3 59.6 55 6.5 43.8
05:30 1018 30.06 848 25.04 15.2 59.4 55 6.4 43.5
05:35 1018 30.06 848 25.04 15.4 59.7 55 6.4 43.5
05:40 1018 30.06 848 25.04 15.4 59.7 54 6.3 43.3
05:45 1019 30.09 848 25.04 15.3 59.6 56 6.7 44.1
05:50 1019 30.09 848 25.04 15.5 59.9 54 6.4 43.4
05:55 1018 30.06 848 25.04 15.1 59.3 56 6.6 43.9
06:00 1019 30.09 848 25.04 14.7 58.4 59 6.8 44.2
06:05 1019 30.09 848 25.04 14.4 57.8 59 6.5 43.6
06:10 1019 30.09 848 25.04 14.5 58.1 58 6.5 43.8
06:15 1019 30.09 848 25.04 14.4 57.8 59 6.6 43.8
06:20 1019 30.09 848 25.04 14.3 57.7 61 6.8 44.3
06:25 1019 30.09 848 25.04 14.2 57.6 59 6.3 43.4
06:30 1019 30.09 848 25.04 14.9 58.8 55 6.2 43.1
06:35 1019 30.09 848 25.04 15.1 59.2 58 6.9 44.4
06:40 1019 30.09 848 25.04 15.1 59.1 57 6.6 43.9
06:45 1019 30.09 848 25.04 15.4 59.7 55 6.6 43.9
06:50 1019 30.09 848 25.04 15.7 60.2 54 6.6 43.8
06:55 1019 30.09 849 25.07 15.7 60.2 56 6.9 44.4
07:00 1019 30.09 849 25.07 15.2 59.4 59 7.2 45
07:05 1020 30.12 849 25.07 15.1 59.2 60 7.4 45.3
07:10 1020 30.12 849 25.07 15 59 59 7.1 44.8
07:15 1020 30.12 849 25.07 15 59 61 7.6 45.6
07:20 1020 30.12 849 25.07 15 59 64 8.2 46.8
07:25 1020 30.12 849 25.07 15.4 59.7 57 7.1 44.7
07:30 1020 30.12 849 25.07 15.7 60.2 61 8.2 46.7
07:35 1020 30.12 849 25.07 15.5 59.9 59 7.6 45.6
07:40 1020 30.12 849 25.07 15.7 60.2 59 7.8 46
07:45 1020 30.12 849 25.07 15.8 60.5 59 7.9 46.2
07:50 1020 30.12 849 25.07 15.9 60.6 63 8.8 47.9
07:55 1020 30.12 849 25.07 15.9 60.6 60 8.3 46.9
08:00 1020 30.12 849 25.07 16 60.8 63 9.1 48.3
08:05 1020 30.12 849 25.07 15.6 60 65 9.1 48.4
08:10 1020 30.12 849 25.07 15.5 59.9 67 9.4 49
08:15 1020 30.12 850 25.1 15.6 60.1 67 9.6 49.2
08:20 1020 30.12 850 25.1 15.6 60.1 68 9.8 49.6
08:25 1020 30.12 850 25.1 15.6 60.1 67 9.5 49.1
08:30 1021 30.15 850 25.1 16.1 60.9 65 9.5 49.1
08:35 1021 30.15 850 25.1 16.2 61.2 63 9.4 48.8
08:40 1021 30.15 850 25.1 16.2 61.2 61 8.8 47.9
08:45 1021 30.15 850 25.1 16.4 61.4 59 8.5 47.3
08:50 1021 30.15 850 25.1 16.9 62.4 58 8.5 47.4
08:55 1021 30.15 850 25.1 17.3 63.1 57 8.7 47.7
09:00 1021 30.15 850 25.1 17.1 62.7 56 8.4 47.2
09:05 1021 30.15 850 25.1 17.4 63.4 54 8.1 46.5
09:10 1021 30.15 850 25.1 17.4 63.3 55 8.4 47
09:15 1021 30.15 850 25.1 17.2 63 55 8.2 46.8
09:20 1021 30.15 850 25.1 17.3 63.1 55 8.1 46.7
09:25 1021 30.15 850 25.1 17.1 62.8 57 8.6 47.5
09:30 1021 30.15 850 25.1 17 62.7 56 8.3 46.9
09:35 1021 30.15 850 25.1 16.9 62.4 57 8.5 47.3
09:40 1021 30.15 850 25.1 17 62.6 56 8.2 46.8
09:45 1021 30.15 850 25.1 17.2 63 55 8.3 47
09:50 1021 30.15 850 25.1 17.6 63.7 55 8.6 47.4
09:55 1021 30.15 850 25.1 18 64.3 52 8.2 46.7
10:00 1021 30.15 850 25.1 18.4 65.2 49 7.7 45.8
10:05 1021 30.15 850 25.1 18.7 65.6 49 7.9 46.3
10:10 1021 30.15 850 25.1 19.4 66.9 46 7.7 45.8
10:15 1021 30.15 850 25.1 18.9 66 50 8.2 46.8
10:20 1021 30.15 850 25.1 18.6 65.5 48 7.6 45.7
10:25 1021 30.15 850 25.1 18.7 65.6 50 8.1 46.7
10:30 1021 30.15 850 25.1 18.8 65.8 48 7.8 46
10:35 1021 30.15 850 25.1 19.5 67.1 47 8.1 46.5
10:40 1021 30.15 850 25.1 19.4 67 46 7.7 45.9
10:45 1021 30.15 850 25.1 19.2 66.5 47 7.8 46
10:50 1021 30.15 850 25.1 19.2 66.5 48 8.1 46.6
10:55 1021 30.15 850 25.1 19 66.1 49 8 46.4
11:00 1021 30.15 850 25.1 19.1 66.4 48 8 46.4
11:05 1021 30.15 850 25.1 19.3 66.7 46 7.6 45.6
11:10 1021 30.15 850 25.1 19.7 67.4 46 7.9 46.3
11:15 1021 30.15 850 25.1 20.2 68.4 45 8.2 46.7
11:20 1021 30.15 850 25.1 20.9 69.6 43 7.9 46.3
11:25 1021 30.15 850 25.1 21 69.8 42 7.7 45.9
11:30 1021 30.15 850 25.1 21.3 70.4 41 7.8 46
11:35 1021 30.15 850 25.1 21.5 70.7 41 7.8 46
11:40 1021 30.15 850 25.1 21.8 71.3 40 8 46.3
11:45 1021 30.15 850 25.1 21.8 71.2 40 7.6 45.7
11:50 1021 30.15 850 25.1 22.5 72.5 38 7.8 46
11:55 1021 30.15 850 25.1 22 71.6 40 8 46.3
12:00 1021 30.15 850 25.1 21.9 71.3 39 7.6 45.7
12:05 1021 30.15 850 25.1 22.7 72.8 39 8.2 46.8
12:10 1021 30.15 850 25.1 22.3 72.2 41 8.7 47.6
12:15 1021 30.15 850 25.1 22.4 72.3 39 7.8 46
12:20 1021 30.15 850 25.1 22.9 73.2 38 8 46.4
12:25 1021 30.15 850 25.1 22.6 72.7 41 8.7 47.7
12:30 1020 30.12 850 25.1 23.9 74.9 37 8.7 47.6
12:35 1020 30.12 850 25.1 24 75.3 38 9 48.2
12:40 1020 30.12 850 25.1 22.4 72.3 41 8.7 47.7
12:45 1020 30.12 850 25.1 22.3 72.1 42 8.8 47.8
12:50 1020 30.12 850 25.1 23 73.4 38 7.9 46.3
12:55 1020 30.12 850 25.1 24.4 76 34 7.9 46.3
13:00 1020 30.12 849 25.07 24.2 75.5 36 8.2 46.8
13:05 1020 30.12 849 25.07 23.2 73.8 38 8.4 47.2
13:10 1020 30.12 849 25.07 23.9 75.1 35 7.8 46.1
13:15 1020 30.12 849 25.07 23.1 73.6 39 8.5 47.3
13:20 1020 30.12 849 25.07 23.1 73.5 37 7.9 46.3
13:25 1020 30.12 849 25.07 23.3 74 39 8.8 47.8
13:30 1020 30.12 849 25.07 23.6 74.4 38 8.5 47.4
13:35 1020 30.12 849 25.07 23.9 75.1 37 8.6 47.5
13:40 1020 30.12 849 25.07 24.4 75.9 35 8.3 47
13:45 1020 30.12 849 25.07 23.6 74.5 37 8.3 46.9
13:50 1020 30.12 849 25.07 23.9 75.1 38 9 48.2
13:55 1020 30.12 849 25.07 24.1 75.4 37 8.8 47.8
14:00 1020 30.12 849 25.07 24.7 76.5 34 8 46.4
14:05 1020 30.12 849 25.07 25.1 77.2 34 8.6 47.4
14:10 1020 30.12 849 25.07 25 76.9 35 8.5 47.3
14:15 1019 30.09 849 25.07 26.3 79.3 33 8.8 47.8
14:20 1019 30.09 849 25.07 26 78.8 33 8.9 48.1
14:25 1019 30.09 849 25.07 25.4 77.6 35 9.1 48.3
14:30 1019 30.09 849 25.07 25.6 78 35 9.3 48.8
14:35 1019 30.09 849 25.07 25.8 78.4 35 9.2 48.6
14:40 1019 30.09 848 25.04 26 78.7 33 8.7 47.7
14:45 1019 30.09 848 25.04 26.4 79.5 34 9.6 49.3
14:50 1019 30.09 848 25.04 26 78.9 34 9.1 48.3
14:55 1019 30.09 848 25.04 26.3 79.3 32 8.6 47.6
15:00 1019 30.09 848 25.04 26.9 80.4 31 8.5 47.4
15:05 1019 30.09 848 25.04 26.9 80.4 32 8.9 47.9
15:10 1019 30.09 848 25.04 26 78.8 37 10.6 51.1
15:15 1019 30.09 848 25.04 26.2 79.2 33 8.9 48
15:20 1019 30.09 848 25.04 26.3 79.4 33 9 48.2
15:25 1019 30.09 848 25.04 25.8 78.5 35 9.3 48.7
15:30 1019 30.09 848 25.04 26.3 79.3 32 8.7 47.7
15:35 1019 30.09 848 25.04 26.1 79 33 9 48.2
15:40 1019 30.09 848 25.04 26.3 79.4 32 8.4 47.1
15:45 1019 30.09 848 25.04 27.4 81.4 30 8.8 47.9
15:50 1019 30.09 848 25.04 27.4 81.4 31 9.2 48.5
15:55 1019 30.09 848 25.04 27.3 81.1 31 8.9 48.1
16:00 1019 30.09 848 25.04 26.8 80.2 33 9.3 48.7
16:05 1019 30.09 848 25.04 27 80.6 31 9 48.1
16:10 1019 30.09 848 25.04 27 80.6 31 8.8 47.9
16:15 1019 30.09 848 25.04 26.5 79.7 31 8.1 46.7
16:20 1019 30.09 848 25.04 27.3 81.1 31 8.8 47.8
16:25 1019 30.09 848 25.04 27.7 81.9 29 8.6 47.4
16:30 1019 30.09 848 25.04 27.8 82.1 30 8.7 47.7
16:35 1019 30.09 848 25.04 28.3 83 31 9.9 49.8
16:40 1019 30.09 848 25.04 28.2 82.8 31 9.6 49.3
16:45 1018 30.06 848 25.04 27.9 82.2 30 9.2 48.6
16:50 1018 30.06 848 25.04 27 80.6 32 9.2 48.5
16:55 1018 30.06 848 25.04 26.5 79.6 33 9.1 48.5
17:00 1018 30.06 848 25.04 26.4 79.4 34 9.5 49.1
17:05 1018 30.06 847 25.01 26.4 79.6 34 9.4 49
17:10 1018 30.06 847 25.01 25.9 78.7 34 9.3 48.7
17:15 1018 30.06 847 25.01 26.1 78.9 35 9.5 49.1
17:20 1018 30.06 847 25.01 26.3 79.4 35 9.8 49.7
17:25 1018 30.06 847 25.01 26 78.8 34 9.2 48.5
17:30 1018 30.06 847 25.01 25.7 78.3 36 9.7 49.5
17:35 1018 30.06 847 25.01 25.4 77.7 36 9.3 48.7
17:40 1018 30.06 847 25.01 25.4 77.7 36 9.5 49.1
17:45 1018 30.06 847 25.01 25.4 77.7 37 10 50.1
17:50 1018 30.06 847 25.01 25.4 77.8 38 10.4 50.6
17:55 1018 30.06 847 25.01 25.3 77.5 35 9.1 48.3
18:00 1018 30.06 847 25.01 25.8 78.5 37 10.3 50.5
18:05 1018 30.06 847 25.01 25.9 78.6 35 9.6 49.3
18:10 1018 30.06 847 25.01 26.1 79 35 9.8 49.6
18:15 1018 30.06 847 25.01 25.9 78.5 36 9.8 49.7
18:20 1018 30.06 847 25.01 25.3 77.5 37 9.9 49.8
18:25 1017 30.03 847 25.01 25.2 77.4 37 9.8 49.6
18:30 1017 30.03 847 25.01 25.5 77.8 35 9 48.1
18:35 1017 30.03 847 25.01 25.8 78.4 34 9 48.3
18:40 1017 30.03 847 25.01 26.3 79.4 33 8.9 47.9
18:45 1017 30.03 847 25.01 26.8 80.3 30 8.2 46.7
18:50 1017 30.03 847 25.01 26.4 79.6 34 9.6 49.3
18:55 1017 30.03 847 25.01 26.2 79.2 31 7.8 46
19:00 1017 30.03 847 25.01 26.4 79.5 30 7.9 46.2
19:05 1017 30.03 847 25.01 26.5 79.8 32 8.6 47.5
19:10 1017 30.03 847 25.01 26.5 79.8 33 9.1 48.3
19:15 1017 30.03 847 25.01 26.4 79.5 33 9.2 48.5
19:20 1017 30.03 847 25.01 26.2 79.2 33 8.8 47.9
19:25 1017 30.03 847 25.01 26 78.9 34 9.3 48.7
19:30 1017 30.03 847 25.01 26 78.9 34 9.4 48.9
19:35 1017 30.03 847 25.01 25.9 78.6 35 9.5 49
19:40 1017 30.03 847 25.01 25.6 78.1 40 11.1 52.1
19:45 1017 30.03 847 25.01 25.1 77.2 42 11.5 52.7
19:50 1017 30.03 847 25.01 25 77 37 9.5 49.2
19:55 1017 30.03 847 25.01 25.1 77.2 38 10.1 50.2
20:00 1017 30.03 847 25.01 25.1 77.2 38 10.1 50.1
20:05 1018 30.06 847 25.01 25.1 77.1 37 9.6 49.3
20:10 1018 30.06 847 25.01 25.1 77.2 36 9.4 48.9
20:15 1018 30.06 847 25.01 25.1 77.2 37 9.7 49.5
20:20 1018 30.06 847 25.01 25 77 40 10.5 50.9
20:25 1018 30.06 847 25.01 24.8 76.6 41 10.9 51.6
20:30 1018 30.06 847 25.01 24.6 76.2 42 11.1 52
20:35 1018 30.06 847 25.01 24.4 75.9 43 11.1 51.9
20:40 1018 30.06 847 25.01 24.2 75.6 42 10.6 51.1
20:45 1018 30.06 847 25.01 24.2 75.5 42 10.6 51.1
20:50 1018 30.06 847 25.01 24 75.2 43 10.9 51.5
20:55 1018 30.06 847 25.01 23.7 74.6 44 10.7 51.3
21:00 1018 30.06 847 25.01 23.5 74.2 44 10.5 51
21:05 1018 30.06 847 25.01 23.3 74 44 10.5 50.8
21:10 1018 30.06 847 25.01 23.2 73.7 44 10.3 50.6
21:15 1018 30.06 847 25.01 23.1 73.6 44 10.3 50.5
21:20 1018 30.06 847 25.01 22.9 73.3 44 10.3 50.6
21:25 1018 30.06 847 25.01 22.8 73.1 45 10.5 50.8
21:30 1018 30.06 847 25.01 22.6 72.6 46 10.4 50.7
21:35 1018 30.06 847 25.01 22.4 72.4 45 10.2 50.4
21:40 1018 30.06 847 25.01 22.4 72.3 46 10.4 50.8
21:45 1018 30.06 847 25.01 22.1 71.8 46 10.3 50.5
21:50 1018 30.06 847 25.01 22 71.6 46 10.1 50.2
21:55 1018 30.06 847 25.01 22 71.5 46 10 50
22:00 1018 30.06 847 25.01 21.9 71.5 46 10.1 50.2
22:05 1018 30.06 848 25.04 21.8 71.3 46 9.9 49.9
22:10 1018 30.06 848 25.04 21.8 71.2 46 9.9 49.8
22:15 1018 30.06 848 25.04 21.7 71.1 47 10 49.9
22:20 1019 30.09 848 25.04 21.6 71 46 9.7 49.5
22:25 1019 30.09 848 25.04 21.6 70.9 46 9.7 49.5
22:30 1019 30.09 848 25.04 21.5 70.7 46 9.6 49.4
22:35 1019 30.09 848 25.04 21.5 70.6 46 9.6 49.3
22:40 1019 30.09 848 25.04 21.4 70.5 47 9.7 49.4
22:45 1019 30.09 848 25.04 21.3 70.3 47 9.6 49.3
22:50 1019 30.09 848 25.04 21.2 70.2 47 9.6 49.3
22:55 1019 30.09 848 25.04 21.2 70.1 47 9.6 49.3
23:00 1019 30.09 848 25.04 21.1 69.9 47 9.5 49.2
23:05 1019 30.09 848 25.04 21 69.7 47 9.5 49.1
23:10 1019 30.09 848 25.04 20.9 69.5 48 9.6 49.2
23:15 1019 30.09 848 25.04 20.7 69.2 48 9.4 49
23:20 1019 30.09 848 25.04 20.6 69.1 48 9.5 49.1
23:25 1019 30.09 848 25.04 20.4 68.8 49 9.5 49.1
23:30 1019 30.09 848 25.04 20.3 68.6 49 9.5 49.1
23:35 1019 30.09 848 25.04 20.1 68.2 50 9.4 48.9
23:40 1019 30.09 848 25.04 20 68.1 50 9.4 48.9
23:45 1019 30.09 848 25.04 19.9 67.9 50 9.4 48.9
23:50 1019 30.09 848 25.04 19.9 67.8 50 9.2 48.6
23:55 1019 30.09 848 25.04 19.9 67.9 49 9.1 48.5
24:00 1019 30.09 848 25.04 19.9 67.9 49 9.1 48.4